Logo AVAMET
Benvolgut visitant, si us plau, ingressa Recuperar contrasenya
AVAMET paisatges

Ondara

Dades diàries. Acumulats / Últims 30 dies disponibles

Data Temperatura (°C) Humitat rel. (%) Pressió rel. (hPa) Vent (km/h) Precipitació
Mínima Mitjana Màxima Amplitud
tèrmica
Mínima Mitjana Màxima Mínima Mitjana Màxima Predom. Mitjana Ràfega
màxima
Total
(mm)
Índex-n
Mínima Mitjana Màxima Mínima Mitjana Màxima n
0 a 1
P0 max
mm 5'
Dades mensuals acumulades fins l'últim dia disponible
06/2020 18,2 18,2 18,2 22,9 28,0 28,0 28,0 9,8 34 63 80 1.008 1.009 1.011   4,7 28,1 0,0
Dades anuals acumulades fins l'últim dia disponible
2020 2,2 11,5 22,0 15,9 11,4 21,0 31,9 29,7 14 69 98 997 1.015 1.030   5,1 75,8 249,5
Últims 30 dies disponibles
01-06-2020 18,2     22,9     28,0 9,8 34 63 80 1.008 1.009 1.011 SSE 4,7 28,1 0,0
31-05-2020 15,5     21,7     27,4 11,9 37 58 73 1.006 1.008 1.009 SSE 5,4 24,6 0,0
30-05-2020 15,0     21,5     26,2 11,2 38 54 66 1.007 1.010 1.011 SSE 6,1 27,8 0,0
29-05-2020 14,7     21,7     27,2 12,5 34 54 80 1.008 1.011 1.016 SSE 4,8 22,6 0,0
28-05-2020 19,2     21,9     25,7 6,5 59 71 83 1.015 1.018 1.021 SSO 1,4 9,4 0,0
27-05-2020 16,7     21,5     25,9 9,2 50 69 79 1.018 1.019 1.021 SSO 2,3 15,0 0,0
26-05-2020 17,1     21,4     25,1 8,0 57 70 81 1.019 1.020 1.021 SO 2,1 16,6 0,0
25-05-2020 16,0     20,9     26,3 10,3 45 66 82 1.018 1.020 1.022 S 2,1 9,3 0,0
24-05-2020 19,3     22,4     25,5 6,2 60 72 84 1.020 1.021 1.022 S 1,9 11,1 0,0
23-05-2020 16,9     24,2     31,3 14,4 27 51 76 1.017 1.018 1.020 S 4,6 26,6 0,0
22-05-2020 17,8     24,6     30,9 13,1 32 56 85 1.014 1.016 1.019 S 4,2 24,1 0,0
21-05-2020 17,6     24,1     30,1 12,5 31 63 91 1.011 1.014 1.015 S 4,2 29,8 0,0
20-05-2020 16,9     24,2     30,3 13,4 34 54 76 1.009 1.011 1.012 S 4,5 24,1 0,0
19-05-2020 14,5     22,8     30,6 16,1 31 55 85 1.010 1.013 1.016 S 6,4 27,8 0,0
18-05-2020 13,7     21,0     27,9 14,2 37 62 85 1.014 1.016 1.017 SSE 5,0 34,2 0,0
17-05-2020 15,4     18,7     23,4 8,0 57 74 89 1.014 1.016 1.017 S 4,1 24,4 0,6
16-05-2020 14,5     17,4     21,1 6,6 61 79 89 1.010 1.011 1.015 OSO 5,6 25,9 2,0
15-05-2020 12,3     17,8     22,9 10,6 48 69 84 1.005 1.008 1.010 SO 3,4 18,5 0,0
14-05-2020 14,2     17,1     22,4 8,2 44 67 91 998 1.001 1.005 SO 7,3 48,1 8,7 0,28 0,60
13-05-2020 16,4     20,0     24,9 8,5 38 54 76 1.000 1.001 1.003 SSO 8,5 29,8 0,0
12-05-2020 17,1     20,7     24,6 7,5 43 60 83 1.001 1.004 1.007 SO 3,6 18,5 0,0
11-05-2020 18,6     22,4     27,6 9,0 29 44 54 1.002 1.004 1.007 OSO 10,6 44,4 0,0
10-05-2020 15,4     20,2     25,5 10,1 30 61 88 999 1.001 1.004 SO 8,0 46,3 4,4 0,06 0,30
09-05-2020 17,4     21,0     25,9 8,5 54 73 86 1.003 1.007 1.011 SSO 4,8 25,9 0,0
08-05-2020 18,3     20,6     24,4 6,1 59 78 89 1.009 1.012 1.013 OSO 4,2 20,9 0,0
07-05-2020 16,3     20,9     26,7 10,4 39 73 89 1.012 1.013 1.015 OSO 3,5 19,1 0,0
06-05-2020 16,5     21,6     28,1 11,6 43 71 90 1.010 1.011 1.014 S 2,2 20,9 0,0
05-05-2020 15,2     22,3     31,2 16,0 31 67 90 1.008 1.009 1.011 S 2,2 15,5 0,0
04-05-2020 14,7     20,2     27,0 12,3 49 76 93 1.008 1.011 1.013 SSO 2,4 14,8 0,0
03-05-2020 17,2     23,4     29,1 11,9 38 57 86 1.011 1.013 1.015 S 3,3 18,5 0,0
Últims 13 mesos disponibles
04/2020 7,9 12,6 19,1 16,2 16,3 20,5 27,6 19,7 40 72 92 1.001 1.011 1.021 S 5,1 45,0 59,2
03/2020 6,6 11,2 17,9 14,7 11,4 18,9 27,2 20,6 37 69 94 1.003 1.012 1.022 S 6,3 75,8 54,1
02/2020 5,9 9,6 15,3 15,0 14,4 21,4 28,3 22,4 37 67 88 1.009 1.021 1.028 S 4,5 52,5 2,9
01/2020 2,2 7,3 16,1 11,6 12,7 16,9 23,3 21,1 51 74 91 1.011 1.021 1.028 SSO 4,9 46,8 117,6
12/2019 5,7 10,5 18,2 14,2 13,6 18,7 26,1 20,4 43 69 88 1.002 1.016 1.028 SSO 6,8 98,3 106,7
11/2019 6,1 12,9 21,1 16,3 16,0 20,5 27,8 21,7 35 52 79 994 1.006 1.014 O 9,5 72,9 10,0
10/2019 10,7 15,7 19,4 20,5 16,6 26,0 32,5 21,8 39 67 84 1.004 1.012 1.017 SSO 4,9 61,8 74,8
09/2019 14,9 19,8 22,8 23,8 23,4 28,5 35,3 20,4 49 73 91 1.005 1.012 1.018 S 4,6 59,9 164,0
08/2019 19,0 22,3 27,5 27,1 27,6 32,3 38,5 19,5 47 66 76 1.005 1.010 1.015 S 5,1 45,0 37,9
07/2019 20,6 22,3 27,7 27,6 26,2 32,6 39,3 18,7 40 60 73 1.000 1.009 1.016 SSE 5,5 53,8 0,8
06/2019 13,1 17,8 22,6 23,3 22,4 28,5 36,6 23,5 36 60 78 1.004 1.010 1.017 SSE 6,1 51,8 0,0
05/2019 9,5 14,2 21,6 19,2 19,5 24,1 31,6 22,1 46 64 82 1.000 1.010 1.019 S 5,8 62,9 10,0
04/2019 8,2 11,6 14,6 15,8 14,3 20,4 29,3 21,1 42 66 94 995 1.008 1.020 S 6,6 57,4 236,8
Tots els anys disponibles
2019 1,7 14,2 27,7 18,9 12,8 24,1 39,3 37,6 32 63 94 991 1.012 1.029 S 6,1 98,3 701,2
2018 -1,0 14,8 26,6 19,1 6,9 24,0 37,9 38,9 20 63 93 988 1.010 1.026 SSO 5,4 67,2 465,0
2017 0,9 14,4 26,7 19,0 9,2 23,7 36,3 35,4 19 58 91 988 1.017 1.033 S 0,0 75,0 851,9
Temperatura (°C)
Humitat relativa (%)
Velocitat del vent i ràfega màxima (km/h)
Direcció del vent (°)
Pressió (hPa)
Precipitació (mm)
Nota sobre les dades: s'avisa a l'usuari de la provisionalitat i no oficialitat d'aquestes dades
Logo AVAMET blanc
Web allotjada a Sollutia
Llicència de Creative CommonsLa web d'AVAMET i els seus continguts estan subjectes a una llicència de
Reconeixement - No Comercial - Compartir igual
Últimes estacions: Xodos - la Vega (Soci), la Vall d'Alba - Centre (Ajuntament soci), Chera (Ajuntament soci) - - -